Time;durP1;ratioP1;P1;durP2;ratioP2;P2;SDS_P1;SDS_P2;PMS_P1;PMS_P2;Temp;Humidity;BMP_temperature;BMP_pressure;BME280_temperature;BME280_humidity;BME280_pressure;Samples;Min_cycle;Max_cycle;Signal;HPM_P1;HPM_P2
2021/12/10 00:00:33;;;;;;;43.42;23.35;;;4.00;99.90;;;;;;5052872;28;20061;-72
2021/12/10 00:03:00;;;;;;;45.03;23.58;;;4.00;99.90;;;;;;5052454;28;20052;-75
2021/12/10 00:05:34;;;;;;;44.60;23.98;;;5.60;99.90;;;;;;5051757;28;20091;-70
2021/12/10 00:08:01;;;;;;;46.40;24.27;;;4.00;99.90;;;;;;5051568;28;20056;-69
2021/12/10 00:10:31;;;;;;;47.30;23.83;;;4.00;99.90;;;;;;5051508;28;20048;-70
2021/12/10 00:12:57;;;;;;;48.28;26.02;;;4.00;99.90;;;;;;5051443;28;20056;-70
2021/12/10 00:15:28;;;;;;;47.40;24.92;;;4.00;99.90;;;;;;5051592;28;20125;-72
2021/12/10 00:17:57;;;;;;;43.53;24.65;;;4.10;99.90;;;;;;5051922;28;20048;-70
2021/12/10 00:20:25;;;;;;;45.00;25.10;;;4.00;99.90;;;;;;5055989;28;20111;-70
2021/12/10 00:22:58;;;;;;;45.35;25.33;;;5.30;99.90;;;;;;5054948;28;20057;-72
2021/12/10 00:25:34;;;;;;;45.75;24.45;;;4.00;99.90;;;;;;5054817;28;20555;-73
2021/12/10 00:28:13;;;;;;;50.70;24.85;;;4.00;99.90;;;;;;5056008;28;20059;-71
2021/12/10 00:30:48;;;;;;;44.38;24.80;;;4.80;99.90;;;;;;5055744;28;20068;-70
2021/12/10 00:33:20;;;;;;;39.42;24.35;;;4.00;99.90;;;;;;5055657;28;20041;-71
2021/12/10 00:35:47;;;;;;;42.75;23.50;;;5.90;99.90;;;;;;5055638;28;20071;-71
2021/12/10 00:38:15;;;;;;;54.42;25.40;;;4.30;99.90;;;;;;5055851;28;20084;-71
2021/12/10 00:40:41;;;;;;;49.00;23.15;;;4.10;99.90;;;;;;5055697;28;20074;-70
2021/12/10 00:43:07;;;;;;;47.03;24.98;;;4.10;99.90;;;;;;5038064;28;20508;-71
2021/12/10 00:45:33;;;;;;;50.47;24.75;;;4.10;99.90;;;;;;5055536;28;20087;-70
2021/12/10 00:47:59;;;;;;;41.22;24.27;;;5.30;99.90;;;;;;5055440;28;20067;-70
2021/12/10 00:50:29;;;;;;;39.65;22.63;;;4.10;99.90;;;;;;5054300;28;20136;-70
2021/12/10 00:52:55;;;;;;;38.85;23.98;;;4.40;99.90;;;;;;5055550;28;20048;-74
2021/12/10 00:55:23;;;;;;;44.05;24.10;;;6.00;99.90;;;;;;5054473;28;20083;-72
2021/12/10 00:57:50;;;;;;;45.88;23.25;;;5.10;99.90;;;;;;5054382;28;20060;-70
2021/12/10 01:00:31;;;;;;;41.42;22.25;;;4.00;99.90;;;;;;5055309;28;20131;-70
2021/12/10 01:02:57;;;;;;;47.50;24.63;;;4.00;99.90;;;;;;5055003;28;20408;-71
2021/12/10 01:05:24;;;;;;;41.03;24.13;;;4.00;99.90;;;;;;5055340;28;20037;-70
2021/12/10 01:07:50;;;;;;;42.10;22.70;;;4.70;99.90;;;;;;5055250;28;20064;-70
2021/12/10 01:10:22;;;;;;;;;;;4.00;99.90;;;;;;5055600;28;20183;-71
2021/12/10 01:12:51;;;;;;;42.47;24.48;;;4.00;99.90;;;;;;5053965;28;19920;-73
2021/12/10 01:26:24;;;;;;;44.05;24.08;;;5.80;99.90;;;;;;5054652;28;20056;-68
2021/12/10 01:28:55;;;;;;;43.97;24.08;;;4.10;99.90;;;;;;5054661;28;20087;-71
2021/12/10 01:31:21;;;;;;;45.03;25.23;;;4.90;99.90;;;;;;5054645;28;20086;-70
2021/12/10 01:33:48;;;;;;;;;;;5.50;99.90;;;;;;5087379;28;20052;-74
2021/12/10 01:36:15;;;;;;;47.15;23.42;;;4.70;99.90;;;;;;5054722;28;19968;-73
2021/12/10 01:38:42;;;;;;;;;;;4.40;99.90;;;;;;5053992;28;20060;-70
2021/12/10 01:41:12;;;;;;;46.03;23.90;;;4.10;99.90;;;;;;5054704;28;19928;-70
2021/12/10 01:43:40;;;;;;;46.08;24.70;;;4.10;99.90;;;;;;5053594;28;20133;-70
2021/12/10 01:46:14;;;;;;;44.75;25.42;;;4.40;99.90;;;;;;5054331;28;20063;-70
2021/12/10 01:48:46;;;;;;;44.28;22.75;;;4.80;99.90;;;;;;5054381;28;20053;-74
2021/12/10 01:51:15;;;;;;;45.13;23.73;;;4.80;99.90;;;;;;5054244;28;20051;-72
2021/12/10 01:53:43;;;;;;;45.60;24.38;;;4.20;99.90;;;;;;5054047;28;20041;-70
2021/12/10 01:56:13;;;;;;;47.15;24.33;;;5.30;99.90;;;;;;5054294;28;20052;-70
2021/12/10 01:58:40;;;;;;;43.15;22.85;;;4.20;99.90;;;;;;5054029;28;20093;-71
2021/12/10 02:01:15;;;;;;;41.33;22.45;;;4.80;99.90;;;;;;5054059;28;20055;-70
2021/12/10 02:03:41;;;;;;;36.80;21.52;;;4.10;99.90;;;;;;5086649;28;20061;-74
2021/12/10 02:06:07;;;;;;;38.00;19.40;;;4.20;99.90;;;;;;5053865;28;20045;-75
2021/12/10 02:08:34;;;;;;;36.55;19.70;;;4.10;99.90;;;;;;5053170;28;20407;-70
2021/12/10 02:11:01;;;;;;;37.90;19.42;;;4.30;99.90;;;;;;5036620;28;20055;-72
2021/12/10 02:13:27;;;;;;;41.03;21.13;;;4.10;99.90;;;;;;5053908;28;20041;-71
2021/12/10 02:15:54;;;;;;;39.70;22.80;;;4.30;99.90;;;;;;5054018;28;20049;-72
2021/12/10 02:18:21;;;;;;;44.05;20.38;;;4.20;99.90;;;;;;5053779;28;20130;-73
2021/12/10 02:20:52;;;;;;;36.05;20.40;;;4.20;99.90;;;;;;5052509;28;20052;-70
2021/12/10 02:23:18;;;;;;;37.60;22.13;;;4.20;99.90;;;;;;5053858;28;20052;-70
2021/12/10 02:25:44;;;;;;;;;;;4.20;99.90;;;;;;5054204;28;20049;-73
2021/12/10 02:28:12;;;;;;;31.90;20.95;;;4.20;99.90;;;;;;5053673;28;19932;-72
2021/12/10 02:30:39;;;;;;;34.53;20.45;;;4.20;99.90;;;;;;5053574;28;20052;-70
2021/12/10 02:33:06;;;;;;;32.03;19.33;;;4.20;99.90;;;;;;5053440;28;20049;-72
2021/12/10 02:35:34;;;;;;;32.35;18.73;;;4.60;99.90;;;;;;5052326;28;20045;-71
2021/12/10 02:38:00;;;;;;;40.65;19.35;;;4.20;99.90;;;;;;5052507;28;20052;-70
2021/12/10 02:40:29;;;;;;;41.50;20.20;;;4.20;99.90;;;;;;5051970;28;20045;-70
2021/12/10 02:42:56;;;;;;;35.50;18.92;;;4.50;99.90;;;;;;5053248;28;20053;-73
2021/12/10 02:45:24;;;;;;;34.85;20.40;;;5.20;99.90;;;;;;5053519;28;20110;-70
2021/12/10 02:47:51;;;;;;;40.58;20.50;;;5.00;99.90;;;;;;5051992;28;20501;-69
2021/12/10 02:50:20;;;;;;;31.70;19.10;;;5.00;99.90;;;;;;5053284;28;20195;-70
2021/12/10 02:52:46;;;;;;;37.15;20.42;;;4.20;99.90;;;;;;5052364;28;20047;-69
2021/12/10 02:55:15;;;;;;;41.60;21.55;;;4.20;99.90;;;;;;5085941;28;20045;-71
2021/12/10 02:57:45;;;;;;;42.85;24.33;;;4.20;99.90;;;;;;5053281;28;20052;-69
2021/12/10 03:00:14;;;;;;;36.45;21.10;;;4.20;99.90;;;;;;5053040;28;20139;-72
2021/12/10 03:02:41;;;;;;;36.63;21.52;;;4.20;99.90;;;;;;5052915;28;20049;-73
2021/12/10 03:05:09;;;;;;;40.00;20.88;;;5.00;99.90;;;;;;5053395;28;20092;-73
2021/12/10 03:07:35;;;;;;;36.40;20.50;;;4.20;99.90;;;;;;5053218;28;20049;-70
2021/12/10 03:10:07;;;;;;;41.03;24.38;;;5.50;99.90;;;;;;5085873;28;20432;-71
2021/12/10 03:12:33;;;;;;;31.83;18.25;;;4.20;99.90;;;;;;5053043;28;20045;-70
2021/12/10 03:14:59;;;;;;;43.45;22.27;;;4.20;99.90;;;;;;5053016;28;20052;-73
2021/12/10 03:17:28;;;;;;;35.75;21.48;;;5.60;99.90;;;;;;5051737;28;20052;-71
2021/12/10 03:19:54;;;;;;;37.75;20.60;;;4.20;99.90;;;;;;5053102;28;20049;-70
2021/12/10 03:22:20;;;;;;;38.50;21.30;;;5.40;99.90;;;;;;5085937;28;20049;-73
2021/12/10 03:24:47;;;;;;;40.60;22.85;;;4.10;99.90;;;;;;5053015;28;20052;-71
2021/12/10 03:27:15;;;;;;;33.92;21.42;;;4.20;99.90;;;;;;5052870;28;20480;-70
2021/12/10 03:29:43;;;;;;;39.50;22.00;;;4.10;99.90;;;;;;5053025;28;20049;-70
2021/12/10 03:32:14;;;;;;;35.97;21.30;;;4.10;99.90;;;;;;5052630;28;20052;-75
2021/12/10 03:34:40;;;;;;;43.17;22.08;;;4.50;99.90;;;;;;5053123;28;20052;-74
2021/12/10 03:37:07;;;;;;;;;;;4.20;99.90;;;;;;5053437;28;20525;-70
2021/12/10 03:39:33;;;;;;;37.00;22.27;;;4.10;99.90;;;;;;5052933;28;19925;-70
2021/12/10 03:42:00;;;;;;;41.78;23.98;;;5.80;99.90;;;;;;5052889;28;20098;-70
2021/12/10 03:44:28;;;;;;;43.75;22.67;;;4.10;99.90;;;;;;5051810;28;20049;-72
2021/12/10 03:46:55;;;;;;;39.85;23.27;;;5.60;99.90;;;;;;5051655;28;20045;-70
2021/12/10 03:49:21;;;;;;;40.50;21.92;;;4.10;99.90;;;;;;5051860;28;20053;-70
2021/12/10 03:51:48;;;;;;;41.03;21.70;;;5.30;99.90;;;;;;5085754;28;20041;-71
2021/12/10 03:54:16;;;;;;;;;;;4.10;99.90;;;;;;5089401;28;20150;-71
2021/12/10 03:56:44;;;;;;;39.13;22.75;;;4.10;99.90;;;;;;5056472;28;19979;-70
2021/12/10 03:59:14;;;;;;;40.75;20.90;;;4.50;99.90;;;;;;5056545;28;20187;-70
2021/12/10 04:01:43;;;;;;;36.00;20.75;;;4.10;99.90;;;;;;5055262;28;20068;-70
2021/12/10 04:04:14;;;;;;;35.83;22.40;;;4.10;99.90;;;;;;5056491;28;20081;-70
2021/12/10 04:06:40;;;;;;;37.63;21.35;;;4.10;99.90;;;;;;5056263;28;20610;-74
2021/12/10 04:09:06;;;;;;;34.40;20.48;;;4.80;99.90;;;;;;5056313;28;20053;-70
2021/12/10 04:11:33;;;;;;;33.90;20.55;;;4.10;99.90;;;;;;5056292;28;20059;-68
2021/12/10 04:14:00;;;;;;;32.35;20.55;;;4.10;99.90;;;;;;5056020;28;20048;-71
2021/12/10 04:16:28;;;;;;;36.80;19.73;;;4.90;99.90;;;;;;5056225;28;20087;-74
2021/12/10 04:18:55;;;;;;;36.70;20.75;;;5.10;99.90;;;;;;5056170;28;20537;-72
2021/12/10 04:21:22;;;;;;;38.70;21.25;;;4.10;99.90;;;;;;5055174;28;20055;-70
2021/12/10 04:23:48;;;;;;;;;;;4.10;99.90;;;;;;5055523;28;20081;-70
2021/12/10 04:26:17;;;;;;;37.92;20.90;;;4.80;99.90;;;;;;5055023;28;20298;-71
2021/12/10 04:28:43;;;;;;;35.38;19.23;;;4.10;99.90;;;;;;5055843;28;20060;-70
2021/12/10 04:31:10;;;;;;;38.53;21.00;;;4.20;99.90;;;;;;5055945;28;20053;-70
2021/12/10 04:33:36;;;;;;;37.33;20.50;;;4.30;99.90;;;;;;5054719;28;20507;-73
2021/12/10 04:36:02;;;;;;;32.42;18.30;;;4.20;99.90;;;;;;5055856;28;20045;-70
2021/12/10 04:38:30;;;;;;;34.72;20.33;;;4.10;99.90;;;;;;5055809;28;20049;-74
2021/12/10 04:41:00;;;;;;;32.22;19.30;;;4.10;99.90;;;;;;5054610;28;20048;-71
2021/12/10 04:43:27;;;;;;;34.40;20.42;;;4.00;99.90;;;;;;5055535;28;20045;-71
2021/12/10 04:45:56;;;;;;;43.60;20.25;;;4.10;99.90;;;;;;5055364;28;20488;-73
2021/12/10 04:48:24;;;;;;;38.55;20.40;;;5.40;99.90;;;;;;5055601;28;20084;-70
2021/12/10 04:50:50;;;;;;;34.83;20.20;;;5.10;99.90;;;;;;5054590;28;20140;-70
2021/12/10 04:53:16;;;;;;;34.63;19.88;;;4.80;99.90;;;;;;5055415;28;20138;-71
2021/12/10 04:55:43;;;;;;;31.48;18.90;;;4.00;99.90;;;;;;5055438;28;20480;-72
2021/12/10 04:58:10;;;;;;;33.10;18.67;;;4.00;99.90;;;;;;5055360;28;20510;-71
2021/12/10 05:00:43;;;;;;;29.63;17.60;;;4.20;99.90;;;;;;5087326;28;20146;-70
2021/12/10 05:03:09;;;;;;;31.00;19.65;;;4.70;99.90;;;;;;5055479;28;20094;-71
2021/12/10 05:05:35;;;;;;;34.53;18.30;;;4.40;99.90;;;;;;5054635;28;20041;-72
2021/12/10 05:08:03;;;;;;;33.22;17.92;;;4.50;99.90;;;;;;5053787;28;20143;-70
2021/12/10 05:10:28;;;;;;;31.10;17.38;;;4.00;99.90;;;;;;5055148;28;20416;-70
2021/12/10 05:12:55;;;;;;;33.80;17.92;;;4.00;99.90;;;;;;5054951;28;20037;-70
2021/12/10 05:15:24;;;;;;;36.35;19.50;;;4.00;99.90;;;;;;5055103;28;20060;-72
2021/12/10 05:17:51;;;;;;;29.55;18.15;;;4.40;99.90;;;;;;5055032;28;20147;-71
2021/12/10 05:20:25;;;;;;;31.67;17.67;;;4.10;99.90;;;;;;5055022;28;20446;-70
2021/12/10 05:22:51;;;;;;;29.73;17.70;;;4.00;99.90;;;;;;5054868;28;20037;-71
2021/12/10 05:25:18;;;;;;;31.08;18.50;;;4.70;99.90;;;;;;5054859;28;20052;-71
2021/12/10 05:27:45;;;;;;;30.20;18.50;;;3.90;99.90;;;;;;5087236;28;20583;-74
2021/12/10 05:30:16;;;;;;;27.98;16.58;;;3.90;99.90;;;;;;5054878;28;20052;-72
2021/12/10 05:32:42;;;;;;;26.73;17.80;;;4.20;99.90;;;;;;5053678;28;20045;-73
2021/12/10 05:35:08;;;;;;;35.65;17.92;;;4.00;99.90;;;;;;5053770;28;20041;-73
2021/12/10 05:37:34;;;;;;;30.58;17.48;;;4.60;99.90;;;;;;5053579;28;20081;-71
2021/12/10 05:39:59;;;;;;;29.50;16.25;;;4.40;99.90;;;;;;5053613;28;20091;-70
2021/12/10 05:42:25;;;;;;;27.77;17.58;;;4.10;99.90;;;;;;5054393;28;20044;-70
2021/12/10 05:44:54;;;;;;;27.42;17.33;;;3.80;99.90;;;;;;5054506;28;20174;-74
2021/12/10 05:47:19;;;;;;;26.25;17.02;;;3.80;99.90;;;;;;5054448;28;20507;-70
2021/12/10 05:49:46;;;;;;;24.30;15.35;;;4.30;99.90;;;;;;5087202;28;20087;-70
2021/12/10 05:52:11;;;;;;;27.05;15.18;;;3.70;99.90;;;;;;5054256;28;20400;-71
2021/12/10 05:54:37;;;;;;;21.58;14.18;;;3.70;99.90;;;;;;5054278;28;20044;-71
2021/12/10 05:57:04;;;;;;;23.10;13.88;;;4.70;99.90;;;;;;5054129;28;20048;-70
2021/12/10 05:59:30;;;;;;;;;;;3.70;99.90;;;;;;5087136;28;20416;-70
2021/12/10 06:01:56;;;;;;;21.60;14.48;;;3.70;99.90;;;;;;5086784;28;19946;-70
2021/12/10 06:04:26;;;;;;;23.85;13.80;;;4.60;99.90;;;;;;5054174;28;20044;-70
2021/12/10 06:06:53;;;;;;;18.73;11.98;;;3.70;99.90;;;;;;5053978;28;20045;-71
2021/12/10 06:09:19;;;;;;;;;;;3.60;99.90;;;;;;5054419;28;20084;-70
2021/12/10 06:11:44;;;;;;;19.90;11.75;;;3.60;99.90;;;;;;5053859;28;19986;-70
2021/12/10 06:14:10;;;;;;;17.58;11.30;;;3.50;99.90;;;;;;5052903;28;20052;-70
2021/12/10 06:16:36;;;;;;;17.33;11.35;;;3.60;99.90;;;;;;5053092;28;20374;-71
2021/12/10 06:19:05;;;;;;;19.55;12.00;;;3.40;99.90;;;;;;5086460;28;20088;-72
2021/12/10 06:21:33;;;;;;;18.08;11.60;;;4.80;99.90;;;;;;5086320;28;20048;-70
2021/12/10 06:23:59;;;;;;;17.83;10.43;;;3.40;99.90;;;;;;5053675;28;20488;-72
2021/12/10 06:26:25;;;;;;;22.58;12.45;;;3.90;99.90;;;;;;5053610;28;20045;-70
2021/12/10 06:28:51;;;;;;;16.08;10.55;;;4.10;99.90;;;;;;5053844;28;20056;-71
2021/12/10 06:31:20;;;;;;;16.50;10.70;;;3.30;99.90;;;;;;5052673;28;20420;-75
2021/12/10 06:33:46;;;;;;;18.02;9.88;;;4.50;99.90;;;;;;5052380;28;20412;-72
2021/12/10 06:36:13;;;;;;;16.70;10.68;;;3.20;99.90;;;;;;5053559;28;20049;-74
2021/12/10 06:38:38;;;;;;;17.98;11.60;;;3.20;99.90;;;;;;5052543;28;20610;-71
2021/12/10 06:41:05;;;;;;;14.23;9.70;;;4.00;99.90;;;;;;5086039;28;20123;-74
2021/12/10 06:43:31;;;;;;;18.30;11.70;;;4.60;99.90;;;;;;5053593;28;20114;-71
2021/12/10 06:45:59;;;;;;;14.10;9.68;;;3.10;99.90;;;;;;5053497;28;20551;-72
2021/12/10 06:48:25;;;;;;;13.50;9.00;;;4.20;99.90;;;;;;5053358;28;20059;-70
2021/12/10 06:50:58;;;;;;;17.33;9.48;;;3.70;99.90;;;;;;5053375;28;20055;-73
2021/12/10 06:53:25;;;;;;;12.55;9.25;;;5.00;99.90;;;;;;5053249;28;20084;-70
2021/12/10 06:55:51;;;;;;;17.33;9.55;;;3.00;99.90;;;;;;5052214;28;20399;-71
2021/12/10 06:58:18;;;;;;;13.27;9.02;;;4.70;99.90;;;;;;5053505;28;20048;-69
2021/12/10 07:00:49;;;;;;;14.52;8.93;;;3.40;99.90;;;;;;5053298;28;20135;-70
2021/12/10 07:03:19;;;;;;;13.60;8.90;;;4.70;99.90;;;;;;5053327;28;20063;-75
2021/12/10 07:05:45;;;;;;;14.23;8.98;;;3.60;99.90;;;;;;5052109;28;20065;-71
2021/12/10 07:08:11;;;;;;;14.48;8.75;;;2.90;99.90;;;;;;5053072;28;20052;-72
2021/12/10 07:10:37;;;;;;;14.10;8.25;;;2.90;99.90;;;;;;5052055;28;20052;-70
2021/12/10 07:13:06;;;;;;;14.55;8.60;;;3.50;99.90;;;;;;5052033;28;20052;-70
2021/12/10 07:15:33;;;;;;;11.95;7.47;;;4.20;99.90;;;;;;5051986;28;20048;-75
2021/12/10 07:18:00;;;;;;;11.60;7.95;;;3.70;99.90;;;;;;5051987;28;20049;-70
2021/12/10 07:20:26;;;;;;;14.10;9.60;;;2.80;99.90;;;;;;5053047;28;20048;-70
2021/12/10 07:22:52;;;;;;;12.38;8.35;;;2.80;99.90;;;;;;5052978;28;20041;-69
2021/12/10 07:25:20;;;;;;;12.75;8.05;;;2.70;99.90;;;;;;5052870;28;20126;-70
2021/12/10 07:27:47;;;;;;;13.15;7.25;;;3.50;99.90;;;;;;5053832;28;20056;-70
2021/12/10 07:30:14;;;;;;;13.55;8.32;;;2.70;99.90;;;;;;5039749;28;20051;-70
2021/12/10 07:32:39;;;;;;;13.55;8.30;;;2.70;99.90;;;;;;5055668;28;20056;-73
2021/12/10 07:35:08;;;;;;;11.45;7.82;;;2.60;99.90;;;;;;5056643;28;20538;-72
2021/12/10 07:37:34;;;;;;;12.93;7.28;;;2.70;99.90;;;;;;5039095;28;20063;-70
2021/12/10 07:40:00;;;;;;;;;;;2.60;99.90;;;;;;5055861;28;20527;-74
2021/12/10 07:42:26;;;;;;;15.35;9.07;;;2.60;99.90;;;;;;5056849;28;19924;-73
2021/12/10 07:44:54;;;;;;;13.02;7.68;;;2.60;99.90;;;;;;5056755;28;20045;-71
2021/12/10 07:47:21;;;;;;;17.25;8.98;;;4.30;99.90;;;;;;5056548;28;20500;-73
2021/12/10 07:49:47;;;;;;;17.13;8.52;;;2.60;99.90;;;;;;5056637;28;20041;-70
2021/12/10 07:52:18;;;;;;;14.23;8.40;;;2.60;99.90;;;;;;5056494;28;20053;-70
2021/12/10 07:54:46;;;;;;;14.15;8.30;;;3.40;99.90;;;;;;5056380;28;20044;-72
2021/12/10 07:57:14;;;;;;;13.85;9.50;;;2.70;99.90;;;;;;5056672;28;20049;-70
2021/12/10 07:59:40;;;;;;;15.05;9.65;;;2.70;99.90;;;;;;5056144;28;20459;-71
2021/12/10 08:02:05;;;;;;;15.90;8.38;;;3.50;99.90;;;;;;5056318;28;20049;-72
2021/12/10 08:04:31;;;;;;;15.32;8.38;;;3.10;99.90;;;;;;5056396;28;20033;-70
2021/12/10 08:06:57;;;;;;;13.38;8.77;;;4.30;99.90;;;;;;5056264;28;20519;-70
2021/12/10 08:09:23;;;;;;;16.98;8.68;;;2.70;99.90;;;;;;5056031;28;20385;-69
2021/12/10 08:11:50;;;;;;;13.03;8.07;;;3.90;99.90;;;;;;5056311;28;20047;-73
2021/12/10 08:14:16;;;;;;;12.52;8.07;;;2.70;99.90;;;;;;5056206;28;20056;-71
2021/12/10 08:16:47;;;;;;;14.77;8.05;;;4.10;99.90;;;;;;5055318;28;20055;-73
2021/12/10 08:19:14;;;;;;;15.43;9.38;;;4.60;99.90;;;;;;5055143;28;20063;-73
2021/12/10 08:21:41;;;;;;;13.68;8.20;;;3.10;99.90;;;;;;5055718;28;20084;-70
2021/12/10 08:24:07;;;;;;;15.00;8.32;;;2.70;99.90;;;;;;5055656;28;20522;-70
2021/12/10 08:26:33;;;;;;;12.48;8.32;;;2.70;99.90;;;;;;5038408;28;20076;-72
2021/12/10 08:29:00;;;;;;;17.02;8.32;;;2.70;99.90;;;;;;5053623;28;20504;-70
2021/12/10 08:31:28;;;;;;;14.73;8.77;;;3.70;99.90;;;;;;5052880;28;20048;-70
2021/12/10 08:33:54;;;;;;;14.15;8.57;;;2.70;99.90;;;;;;5038104;28;20049;-71
2021/12/10 08:36:21;;;;;;;14.90;9.40;;;3.50;99.90;;;;;;5035473;28;20064;-70
2021/12/10 08:38:47;;;;;;;17.25;8.57;;;4.10;99.90;;;;;;5034654;28;20107;-73
2021/12/10 08:41:17;;;;;;;15.15;8.02;;;2.70;99.90;;;;;;5051322;28;20056;-74
2021/12/10 08:43:44;;;;;;;13.88;8.05;;;2.70;99.90;;;;;;5051163;28;20099;-73
2021/12/10 08:46:11;;;;;;;15.05;8.68;;;2.70;99.90;;;;;;5035664;28;20136;-71
2021/12/10 08:48:38;;;;;;;12.18;7.57;;;2.70;99.90;;;;;;5051178;28;20044;-74
2021/12/10 08:51:15;;;;;;;14.25;8.57;;;4.10;99.90;;;;;;5035545;28;20041;-72
2021/12/10 08:53:41;;;;;;;15.68;8.45;;;3.40;99.90;;;;;;5064674;28;20118;-72
2021/12/10 08:56:07;;;;;;;13.13;9.07;;;2.70;99.90;;;;;;5074378;28;20491;-75
2021/12/10 08:58:33;;;;;;;13.45;8.23;;;2.70;99.90;;;;;;5075111;28;20048;-75
2021/12/10 09:01:08;;;;;;;16.15;8.55;;;4.40;99.90;;;;;;5075397;28;20052;-71
2021/12/10 09:03:34;;;;;;;12.60;7.75;;;2.70;99.90;;;;;;5075245;28;20117;-71
2021/12/10 09:06:02;;;;;;;12.63;7.68;;;3.10;99.90;;;;;;5073859;28;20102;-71
2021/12/10 09:08:28;;;;;;;15.50;8.70;;;2.90;99.90;;;;;;5075050;28;20123;-72
2021/12/10 09:10:54;;;;;;;15.23;8.18;;;2.70;99.90;;;;;;5072915;28;20040;-70
2021/12/10 09:13:21;;;;;;;12.57;7.65;;;3.40;99.90;;;;;;5074002;28;20091;-71
2021/12/10 09:15:55;;;;;;;14.57;8.95;;;2.80;99.90;;;;;;5073802;28;20063;-73
2021/12/10 09:18:22;;;;;;;11.52;7.45;;;2.80;99.90;;;;;;5074002;28;20052;-74
2021/12/10 09:20:51;;;;;;;11.75;7.80;;;2.80;99.90;;;;;;5074665;28;20052;-70
2021/12/10 09:23:21;;;;;;;11.57;7.80;;;3.30;99.90;;;;;;5075003;28;20098;-71
2021/12/10 09:25:48;;;;;;;14.90;8.75;;;3.60;99.90;;;;;;5074904;28;20044;-71
2021/12/10 09:28:14;;;;;;;10.85;8.00;;;2.80;99.90;;;;;;5074676;28;20131;-71
2021/12/10 09:30:44;;;;;;;13.45;8.23;;;2.80;99.90;;;;;;5074493;28;20140;-73
2021/12/10 09:33:10;;;;;;;14.10;7.93;;;2.90;99.90;;;;;;5071254;28;20057;-70
2021/12/10 09:35:36;;;;;;;12.68;7.75;;;2.90;99.90;;;;;;5057147;28;20059;-71
2021/12/10 09:38:04;;;;;;;15.18;9.05;;;2.90;99.90;;;;;;5074693;28;20461;-72
2021/12/10 09:40:34;;;;;;;12.23;8.07;;;2.90;99.90;;;;;;5074692;28;20142;-70
2021/12/10 09:43:00;;;;;;;13.20;7.43;;;2.90;99.90;;;;;;5074537;28;20052;-72
2021/12/10 09:45:27;;;;;;;;;;;2.90;99.90;;;;;;5073399;28;20480;-71
2021/12/10 09:47:53;;;;;;;12.83;8.27;;;4.00;99.90;;;;;;5072250;28;19920;-73
2021/12/10 09:50:22;;;;;;;12.95;7.28;;;3.00;99.90;;;;;;5073011;28;20054;-73
2021/12/10 09:52:49;;;;;;;18.40;7.32;;;3.00;99.90;;;;;;5074304;28;20048;-71
2021/12/10 09:55:18;;;;;;;15.38;7.25;;;4.40;99.90;;;;;;5074325;28;20052;-74
2021/12/10 09:57:46;;;;;;;12.00;7.10;;;4.40;99.90;;;;;;5074046;28;20095;-71
2021/12/10 10:00:20;;;;;;;13.05;8.23;;;3.70;99.90;;;;;;5071291;28;20094;-71
2021/12/10 10:02:46;;;;;;;15.57;9.18;;;3.10;99.90;;;;;;5073886;28;20502;-72
2021/12/10 10:05:12;;;;;;;16.98;8.13;;;4.70;99.90;;;;;;5072891;28;20037;-70
2021/12/10 10:07:38;;;;;;;15.68;8.95;;;3.10;99.90;;;;;;5074043;28;20048;-71
2021/12/10 10:10:15;;;;;;;12.25;7.72;;;4.40;99.90;;;;;;5074002;28;20467;-71
2021/12/10 10:12:43;;;;;;;12.52;7.65;;;4.20;99.90;;;;;;5073589;28;20487;-71
2021/12/10 10:15:18;;;;;;;13.23;7.07;;;4.00;99.90;;;;;;5073589;28;20055;-71
2021/12/10 10:17:44;;;;;;;15.63;7.60;;;3.50;99.90;;;;;;5055747;28;20052;-70
2021/12/10 10:20:13;;;;;;;11.50;7.10;;;3.30;99.90;;;;;;5072469;28;20052;-73
2021/12/10 10:22:39;;;;;;;12.95;7.28;;;3.30;99.90;;;;;;5073569;28;20076;-72
2021/12/10 10:25:08;;;;;;;10.60;6.45;;;3.30;99.90;;;;;;5073660;28;20049;-71
2021/12/10 10:27:37;;;;;;;11.38;7.00;;;3.30;99.90;;;;;;5072603;28;20050;-74
2021/12/10 10:30:10;;;;;;;11.10;7.38;;;3.40;99.90;;;;;;5072341;28;20044;-71
2021/12/10 10:32:36;;;;;;;14.27;7.30;;;3.40;99.90;;;;;;5072582;28;20044;-74
2021/12/10 10:35:09;;;;;;;11.07;6.07;;;3.40;99.90;;;;;;5073592;28;20055;-71
2021/12/10 10:37:36;;;;;;;15.88;7.00;;;3.40;99.90;;;;;;5073499;28;20100;-71
2021/12/10 10:40:05;;;;;;;10.52;6.72;;;3.70;99.90;;;;;;5073550;28;20052;-71
2021/12/10 10:42:31;;;;;;;10.73;6.57;;;3.40;99.90;;;;;;5073192;28;20049;-71
2021/12/10 10:45:07;;;;;;;9.73;6.07;;;3.40;99.90;;;;;;5073194;28;20491;-71
2021/12/10 10:47:33;;;;;;;10.90;6.03;;;3.50;99.90;;;;;;5072516;28;20052;-71
2021/12/10 10:50:12;;;;;;;10.40;6.75;;;3.50;99.90;;;;;;5073247;28;20144;-71
2021/12/10 10:52:47;;;;;;;11.70;6.50;;;3.50;99.90;;;;;;5072987;28;20541;-70
2021/12/10 10:55:14;;;;;;;10.13;6.32;;;3.60;99.90;;;;;;5071474;28;20057;-70
2021/12/10 10:57:59;;;;;;;10.77;5.57;;;3.60;99.90;;;;;;5073425;28;20456;-70
2021/12/10 11:00:37;;;;;;;9.95;5.20;;;3.60;99.90;;;;;;5072960;28;20057;-71
2021/12/10 11:03:21;;;;;;;11.18;5.80;;;3.70;99.90;;;;;;5071004;28;20052;-71
2021/12/10 11:05:57;;;;;;;9.10;6.28;;;3.70;99.90;;;;;;5073020;28;20048;-73
2021/12/10 11:08:33;;;;;;;8.18;4.82;;;3.80;99.90;;;;;;5073337;28;20131;-72
2021/12/10 11:11:28;;;;;;;7.88;5.38;;;3.80;99.90;;;;;;5073155;28;20511;-71
2021/12/10 11:14:05;;;;;;;9.20;5.32;;;3.80;99.90;;;;;;5072154;28;20045;-69
2021/12/10 11:16:34;;;;;;;8.32;5.18;;;3.80;99.90;;;;;;5072837;28;20048;-71
2021/12/10 11:19:08;;;;;;;7.88;4.22;;;3.80;99.90;;;;;;5072190;28;20131;-74
2021/12/10 11:21:43;;;;;;;10.45;5.55;;;4.50;99.90;;;;;;5072010;28;20044;-70
2021/12/10 11:24:19;;;;;;;9.75;5.10;;;4.40;99.90;;;;;;5073038;28;20048;-71
2021/12/10 11:26:47;;;;;;;10.18;4.75;;;4.00;99.90;;;;;;5072866;28;20044;-71
2021/12/10 11:29:51;;;;;;;9.05;4.45;;;5.20;99.90;;;;;;5072298;28;20052;-70
2021/12/10 11:32:54;;;;;;;8.00;5.00;;;4.10;99.90;;;;;;5054344;28;20052;-70
2021/12/10 11:35:25;;;;;;;10.10;5.70;;;5.40;99.90;;;;;;5030737;28;20064;-72
2021/12/10 11:37:54;;;;;;;6.80;4.68;;;4.20;99.90;;;;;;5032215;28;20517;-75
2021/12/10 11:40:27;;;;;;;13.70;5.72;;;6.00;99.90;;;;;;5045347;28;20120;-71
2021/12/10 11:43:02;;;;;;;7.60;5.05;;;4.20;99.90;;;;;;5047901;28;20061;-75
2021/12/10 11:45:52;;;;;;;9.70;6.22;;;4.30;99.90;;;;;;5034113;28;20497;-70
2021/12/10 11:48:26;;;;;;;10.18;5.00;;;4.50;99.90;;;;;;5014395;28;20124;-72
2021/12/10 11:51:19;;;;;;;8.73;5.05;;;4.60;99.90;;;;;;5030519;28;20058;-71
2021/12/10 11:53:59;;;;;;;13.30;5.07;;;4.40;99.90;;;;;;5014066;28;20053;-70
2021/12/10 11:56:37;;;;;;;11.45;5.05;;;4.50;99.90;;;;;;5030633;28;20064;-70
2021/12/10 11:59:14;;;;;;;9.43;5.38;;;4.80;99.90;;;;;;5029987;28;20097;-71
2021/12/10 12:02:14;;;;;;;8.77;5.18;;;4.50;99.90;;;;;;5030386;28;20129;-71
2021/12/10 12:04:44;;;;;;;11.00;5.35;;;4.60;99.90;;;;;;5013832;28;20053;-70
2021/12/10 12:07:18;;;;;;;7.88;4.90;;;4.70;99.90;;;;;;5030507;28;20106;-73
2021/12/10 12:09:56;;;;;;;10.07;5.25;;;4.70;99.90;;;;;;5038742;28;20146;-75
2021/12/10 12:12:38;;;;;;;10.18;5.22;;;5.90;99.90;;;;;;5034562;28;20408;-72
2021/12/10 12:15:20;;;;;;;11.68;6.47;;;4.90;99.90;;;;;;5056110;28;20499;-71
2021/12/10 12:17:52;;;;;;;14.15;7.57;;;4.80;99.90;;;;;;5056186;28;20056;-71
2021/12/10 12:20:48;;;;;;;18.77;11.63;;;5.60;99.90;;;;;;5055162;28;20052;-74
2021/12/10 12:26:21;;;;;;;7.85;5.45;;;5.00;99.90;;;;;;5056134;28;20411;-74
2021/12/10 12:28:48;;;;;;;12.40;5.53;;;5.90;99.90;;;;;;5056009;28;20048;-75
2021/12/10 12:31:40;;;;;;;8.07;4.72;;;5.00;99.90;;;;;;5054806;28;20065;-72
2021/12/10 12:34:14;;;;;;;9.90;5.20;;;5.30;99.90;;;;;;5054247;28;20522;-70
2021/12/10 12:36:42;;;;;;;9.45;4.75;;;5.10;99.90;;;;;;5055868;28;20053;-71
2021/12/10 12:39:14;;;;;;;9.35;4.93;;;5.60;99.90;;;;;;5055736;28;20047;-70
2021/12/10 12:41:47;;;;;;;8.95;5.32;;;5.10;99.90;;;;;;5055737;28;20056;-75
2021/12/10 12:44:13;;;;;;;8.43;4.60;;;5.10;99.90;;;;;;5055520;28;20044;-73
2021/12/10 12:46:57;;;;;;;6.35;4.13;;;5.10;99.90;;;;;;5054861;28;20369;-71
2021/12/10 12:49:25;;;;;;;11.35;5.55;;;5.90;99.90;;;;;;5055474;28;20053;-71
2021/12/10 12:52:06;;;;;;;8.68;5.18;;;5.40;99.90;;;;;;5055634;28;20061;-71
2021/12/10 12:54:35;;;;;;;9.70;5.25;;;5.00;99.90;;;;;;5055297;28;20369;-74
2021/12/10 12:57:04;;;;;;;7.30;4.55;;;5.00;99.90;;;;;;5055212;28;20056;-71
2021/12/10 12:59:30;;;;;;;12.82;4.47;;;5.00;99.90;;;;;;5054204;28;20099;-71
2021/12/10 13:02:01;;;;;;;8.88;5.05;;;5.10;99.90;;;;;;5055281;28;20053;-74
2021/12/10 13:04:33;;;;;;;10.27;5.18;;;5.10;99.90;;;;;;5054196;28;20486;-71
2021/12/10 13:07:04;;;;;;;8.02;4.15;;;5.00;99.90;;;;;;5055207;28;20056;-72
2021/12/10 13:09:46;;;;;;;7.80;4.63;;;5.00;99.90;;;;;;5055076;28;20055;-71